OISL

Lar Airport

Lar, Iran
TAF OISL 141750Z 1418/1524 04002MPS CAVOK
Issued Valid From Valid To
Dec-14 @ 17:50 UTC
(4 hours ago)
Dec-14 @ 18:00 UTC
(4 hours ago)
Dec-16 @ 00:00 UTC
(-1 days ago)
Dec-14 @ 18:00 to Dec-16 @ 00:00
TAF OISL 141750Z 1418/1524 04002MPS CAVOK
Wind Visibility Clouds Conditions
40° at 4 knots 10,000+ meters
  • No significant clouds
TAF OISL 141750Z 1418/1524 04002MPS CAVOK
Issued Dec-14 @ 17:50 UTC
(4 hours ago)
Valid From Dec-14 @ 18:00 UTC
(4 hours ago)
Valid To Dec-16 @ 00:00 UTC
(-1 days ago)
Dec-14 @ 18:00 - Dec-16 @ 00:00
Wind Visibility
40° at 4 knots 10,000+ meters
Clouds
  • No significant clouds
Conditions